Time;durP1;ratioP1;P1;durP2;ratioP2;P2;SDS_P1;SDS_P2;PMS_P1;PMS_P2;Temp;Humidity;BMP_temperature;BMP_pressure;BME280_temperature;BME280_humidity;BME280_pressure;Samples;Min_cycle;Max_cycle;Signal;HPM_P1;HPM_P2
2023/04/29 00:02:27;;;;;;;8.95;2.75;;;21.00;61.50;;;;;;6119098;29;20024;-73
2023/04/29 00:05:28;;;;;;;3.00;2.10;;;21.00;61.90;;;;;;6103800;29;20055;-73
2023/04/29 00:08:29;;;;;;;3.22;2.33;;;21.00;62.20;;;;;;6119421;29;20023;-72
2023/04/29 00:11:30;;;;;;;10.57;2.22;;;21.00;62.20;;;;;;6119456;29;20035;-72
2023/04/29 00:14:31;;;;;;;5.72;1.83;;;21.00;62.30;;;;;;6119530;29;20107;-72
2023/04/29 00:17:32;;;;;;;7.93;2.30;;;21.00;62.20;;;;;;6120590;29;20028;-71
2023/04/29 00:20:33;;;;;;;4.75;2.25;;;21.00;62.30;;;;;;6119588;29;20428;-71
2023/04/29 00:23:34;;;;;;;5.85;2.35;;;20.90;62.40;;;;;;6120599;29;20464;-72
2023/04/29 00:26:35;;;;;;;5.22;2.55;;;20.90;62.50;;;;;;6118651;29;20044;-73
2023/04/29 00:29:36;;;;;;;5.63;2.40;;;20.80;62.50;;;;;;6102902;29;20039;-72
2023/04/29 00:32:38;;;;;;;3.83;2.15;;;20.80;62.60;;;;;;6118706;29;20046;-72
2023/04/29 00:35:39;;;;;;;3.80;1.98;;;20.80;62.50;;;;;;6102913;29;20024;-72
2023/04/29 00:38:40;;;;;;;8.65;2.22;;;20.90;62.40;;;;;;6118446;29;20107;-72
2023/04/29 00:41:41;;;;;;;4.85;2.20;;;20.80;62.10;;;;;;6118119;29;20097;-73
2023/04/29 00:44:42;;;;;;;7.07;1.85;;;20.90;62.10;;;;;;6120090;29;20647;-72
2023/04/29 00:47:43;;;;;;;1.85;1.40;;;20.80;61.50;;;;;;6119956;28;20062;-72
2023/04/29 00:50:44;;;;;;;2.63;1.70;;;20.90;61.00;;;;;;6118790;29;20329;-73
2023/04/29 00:53:45;;;;;;;4.28;1.70;;;20.90;60.40;;;;;;6118099;29;20032;-71
2023/04/29 00:56:46;;;;;;;2.97;1.65;;;21.00;59.90;;;;;;6120317;29;20023;-72
2023/04/29 00:59:48;;;;;;;2.50;1.52;;;21.00;59.60;;;;;;6118032;29;20040;-71
2023/04/29 01:02:50;;;;;;;4.63;1.70;;;21.10;59.40;;;;;;6102797;29;20042;-71
2023/04/29 01:06:04;;;;;;;3.50;1.45;;;21.10;59.10;;;;;;6118340;29;20418;-72
2023/04/29 01:09:16;;;;;;;2.85;1.58;;;21.10;58.90;;;;;;6117971;29;20330;-72
2023/04/29 01:12:39;;;;;;;3.42;1.88;;;21.10;58.90;;;;;;6102346;29;20120;-71
2023/04/29 01:15:59;;;;;;;2.53;1.83;;;21.20;58.80;;;;;;6118347;29;20032;-72
2023/04/29 01:19:11;;;;;;;2.78;2.10;;;21.20;58.90;;;;;;6118135;29;20027;-72
2023/04/29 01:22:17;;;;;;;2.85;1.95;;;21.30;59.00;;;;;;6102423;29;20030;-72
2023/04/29 01:25:18;;;;;;;4.25;2.33;;;21.30;59.20;;;;;;6119812;29;20032;-73
2023/04/29 01:29:19;;;;;;;3.88;2.05;;;21.30;59.50;;;;;;6120913;29;20033;-72
2023/04/29 01:32:56;;;;;;;5.40;2.40;;;21.30;59.80;;;;;;6117931;29;20024;-73
2023/04/29 01:36:17;;;;;;;4.78;2.10;;;21.30;60.00;;;;;;6099819;29;20035;-72
2023/04/29 01:39:36;;;;;;;4.70;2.20;;;21.30;59.90;;;;;;6083910;29;20064;-73
2023/04/29 01:42:59;;;;;;;2.67;2.20;;;21.30;60.10;;;;;;6100148;29;20031;-71
2023/04/29 01:46:04;;;;;;;6.40;2.97;;;21.30;60.20;;;;;;6099932;29;21001;-72
2023/04/29 01:49:06;;;;;;;5.78;2.00;;;21.30;60.20;;;;;;6115444;29;20550;-71
2023/04/29 01:52:07;;;;;;;6.40;2.50;;;21.40;60.30;;;;;;6099718;29;20106;-72
2023/04/29 01:55:10;;;;;;;4.30;2.42;;;21.40;60.40;;;;;;6093531;29;20031;-72
2023/04/29 01:58:31;;;;;;;3.85;2.08;;;21.40;60.40;;;;;;6102349;29;20106;-72
2023/04/29 02:02:04;;;;;;;6.57;2.05;;;21.40;60.30;;;;;;6115694;29;20035;-72
2023/04/29 02:05:08;;;;;;;4.75;2.28;;;21.40;60.20;;;;;;6099783;29;20608;-72
2023/04/29 02:08:13;;;;;;;5.72;2.17;;;21.40;60.10;;;;;;6099350;29;20094;-73
2023/04/29 02:11:17;;;;;;;5.63;2.05;;;21.40;60.00;;;;;;6099749;29;20031;-72
2023/04/29 02:14:18;;;;;;;2.78;1.88;;;21.40;59.90;;;;;;6117690;29;20028;-73
2023/04/29 02:17:19;;;;;;;5.05;2.10;;;21.40;59.80;;;;;;6117302;29;20535;-72
2023/04/29 02:20:20;;;;;;;4.20;1.90;;;21.40;59.80;;;;;;6117557;29;20032;-73
2023/04/29 02:23:21;;;;;;;8.45;2.30;;;21.30;59.90;;;;;;6117605;29;20106;-73
2023/04/29 02:26:23;;;;;;;3.67;2.10;;;21.30;60.00;;;;;;6118536;29;20031;-72
2023/04/29 02:29:26;;;;;;;2.72;1.73;;;21.20;60.00;;;;;;6121575;29;20062;-73
2023/04/29 02:32:28;;;;;;;9.80;2.28;;;21.30;60.10;;;;;;6121866;29;20369;-74
2023/04/29 02:35:29;;;;;;;2.60;1.73;;;21.20;60.10;;;;;;6121738;29;20024;-71
2023/04/29 02:38:30;;;;;;;4.03;2.13;;;21.20;60.30;;;;;;6121019;29;20039;-72
2023/04/29 02:41:31;;;;;;;3.08;2.22;;;21.20;60.50;;;;;;6122827;29;20024;-73
2023/04/29 02:44:32;;;;;;;4.15;2.03;;;21.20;60.60;;;;;;6105448;29;20508;-72
2023/04/29 02:47:33;;;;;;;4.25;2.20;;;21.20;60.50;;;;;;6121153;29;20038;-72
2023/04/29 02:50:34;;;;;;;6.68;2.30;;;21.20;60.40;;;;;;6121266;29;20019;-72
2023/04/29 02:53:36;;;;;;;10.45;2.35;;;21.20;60.40;;;;;;6104997;29;20028;-73
2023/04/29 02:56:37;;;;;;;4.20;2.08;;;21.20;60.40;;;;;;6120970;29;20097;-73
2023/04/29 02:59:38;;;;;;;5.63;2.20;;;21.20;60.30;;;;;;6120779;29;20118;-73
2023/04/29 03:02:39;;;;;;;6.68;1.95;;;21.20;61.20;;;;;;6121106;29;20034;-73
2023/04/29 03:05:40;;;;;;;5.72;2.15;;;21.10;60.70;;;;;;6120856;29;20458;-73
2023/04/29 03:08:42;;;;;;;4.22;1.98;;;20.90;61.50;;;;;;6120061;29;20035;-72
2023/04/29 03:11:42;;;;;;;2.17;1.73;;;20.80;62.10;;;;;;6120383;29;20028;-72
2023/04/29 03:14:43;;;;;;;11.02;2.30;;;20.60;62.80;;;;;;6120770;29;20110;-73
2023/04/29 03:17:45;;;;;;;2.97;1.67;;;20.40;63.00;;;;;;6120691;29;20031;-72
2023/04/29 03:20:47;;;;;;;1.58;1.13;;;20.10;63.30;;;;;;6120263;29;20057;-73
2023/04/29 03:23:49;;;;;;;3.13;1.20;;;19.90;63.80;;;;;;6120169;29;20381;-73
2023/04/29 03:26:58;;;;;;;2.35;1.15;;;19.80;64.10;;;;;;6120122;29;20047;-73
2023/04/29 03:29:59;;;;;;;0.85;0.80;;;19.80;64.40;;;;;;6120225;29;20430;-73
2023/04/29 03:33:00;;;;;;;5.43;1.00;;;19.70;64.50;;;;;;6120244;29;20381;-71
2023/04/29 03:36:04;;;;;;;1.75;1.02;;;19.70;64.60;;;;;;6104308;29;20035;-72
2023/04/29 03:39:12;;;;;;;1.45;0.98;;;19.70;64.60;;;;;;6120378;29;20563;-72
2023/04/29 03:42:13;;;;;;;4.35;1.25;;;19.70;64.60;;;;;;6121115;29;20028;-73
2023/04/29 03:45:14;;;;;;;1.52;1.15;;;19.70;65.00;;;;;;6119686;29;20032;-73
2023/04/29 03:48:14;;;;;;;5.85;1.40;;;19.60;65.50;;;;;;6119470;29;20040;-72
2023/04/29 03:51:16;;;;;;;2.15;1.40;;;19.50;65.90;;;;;;6119831;29;20027;-73
2023/04/29 03:54:17;;;;;;;4.18;1.30;;;19.30;66.40;;;;;;6120140;29;20863;-71
2023/04/29 03:57:18;;;;;;;2.75;1.10;;;19.20;66.90;;;;;;6119277;29;20027;-72
2023/04/29 04:00:19;;;;;;;1.50;0.93;;;19.10;66.90;;;;;;6119384;29;20035;-72
2023/04/29 04:03:27;;;;;;;1.77;0.88;;;19.10;67.10;;;;;;6119529;29;20090;-72
2023/04/29 04:06:30;;;;;;;3.05;1.27;;;19.00;67.10;;;;;;6118871;29;20040;-73
2023/04/29 04:09:32;;;;;;;4.72;1.33;;;19.00;67.10;;;;;;6118744;29;20038;-70
2023/04/29 04:12:33;;;;;;;1.65;1.00;;;19.10;67.20;;;;;;6119251;29;20035;-74
2023/04/29 04:15:34;;;;;;;2.58;0.80;;;19.00;67.40;;;;;;6118947;29;20087;-72
2023/04/29 04:18:38;;;;;;;5.53;1.02;;;19.00;67.80;;;;;;6118995;29;20043;-72
2023/04/29 04:21:40;;;;;;;4.20;1.00;;;18.90;67.90;;;;;;6119018;29;20028;-72
2023/04/29 04:24:43;;;;;;;3.30;1.02;;;18.90;67.90;;;;;;6118661;29;20079;-72
2023/04/29 04:27:44;;;;;;;2.75;1.50;;;19.00;67.80;;;;;;6118886;29;20028;-72
2023/04/29 04:30:53;;;;;;;6.55;1.30;;;19.00;67.80;;;;;;6119781;29;20164;-73
2023/04/29 04:33:54;;;;;;;5.97;1.27;;;19.00;67.90;;;;;;6119258;29;20067;-72
2023/04/29 04:36:56;;;;;;;1.90;1.20;;;19.10;67.80;;;;;;6119019;29;20023;-71
2023/04/29 04:39:57;;;;;;;2.92;0.93;;;19.10;68.10;;;;;;6118733;29;20365;-72
2023/04/29 04:42:59;;;;;;;3.90;1.58;;;19.10;67.80;;;;;;6118789;29;20364;-73
2023/04/29 04:46:09;;;;;;;4.90;1.13;;;19.10;67.70;;;;;;6118497;29;20523;-73
2023/04/29 04:49:12;;;;;;;2.97;1.15;;;19.20;67.70;;;;;;6117967;29;20188;-72
2023/04/29 04:52:20;;;;;;;4.85;1.08;;;19.20;67.50;;;;;;6118324;29;20030;-72
2023/04/29 04:55:27;;;;;;;4.85;1.58;;;19.30;67.40;;;;;;6118206;29;20122;-72
2023/04/29 04:58:30;;;;;;;2.83;1.10;;;19.30;67.20;;;;;;6118184;29;20039;-72
2023/04/29 05:01:31;;;;;;;3.33;1.13;;;19.40;67.20;;;;;;6118203;29;20102;-71
2023/04/29 05:04:32;;;;;;;1.52;1.10;;;19.40;67.20;;;;;;6118493;29;20050;-71
2023/04/29 05:07:36;;;;;;;2.55;1.40;;;19.50;67.10;;;;;;6117834;29;20031;-71
2023/04/29 05:10:39;;;;;;;1.85;1.25;;;19.50;67.10;;;;;;6117867;29;20035;-73
2023/04/29 05:13:41;;;;;;;1.45;0.95;;;19.50;67.10;;;;;;6117917;29;20024;-74
2023/04/29 05:16:43;;;;;;;9.18;1.60;;;19.60;67.20;;;;;;6118056;29;20031;-72
2023/04/29 05:19:44;;;;;;;2.33;1.00;;;19.60;67.40;;;;;;6117815;29;20034;-72
2023/04/29 05:22:45;;;;;;;1.70;1.25;;;19.60;67.80;;;;;;6118122;29;20393;-72
2023/04/29 05:25:47;;;;;;;2.85;1.60;;;19.60;67.90;;;;;;6117988;29;20063;-72
2023/04/29 05:28:50;;;;;;;2.35;1.38;;;19.60;68.00;;;;;;6117607;29;20031;-72
2023/04/29 05:31:53;;;;;;;1.88;1.20;;;19.70;68.00;;;;;;6117750;29;20028;-72
2023/04/29 05:34:54;;;;;;;5.22;1.33;;;19.70;67.90;;;;;;6118435;29;20028;-72
2023/04/29 05:37:54;;;;;;;1.83;1.17;;;19.70;67.90;;;;;;6117863;29;20480;-73
2023/04/29 05:41:04;;;;;;;6.03;1.33;;;19.70;67.90;;;;;;6094438;29;20113;-73
2023/04/29 05:44:08;;;;;;;3.60;1.65;;;19.70;67.90;;;;;;6109748;29;20039;-72
2023/04/29 05:47:09;;;;;;;2.67;1.52;;;19.80;67.70;;;;;;6093860;29;20024;-73
2023/04/29 05:50:11;;;;;;;4.18;1.70;;;19.80;67.60;;;;;;6093947;29;20051;-73
2023/04/29 05:53:13;;;;;;;2.17;1.45;;;19.80;67.50;;;;;;6112372;29;20500;-72
2023/04/29 05:56:15;;;;;;;2.00;1.45;;;19.90;67.30;;;;;;6117443;29;20070;-73
2023/04/29 05:59:16;;;;;;;4.35;1.50;;;19.90;67.20;;;;;;6117651;29;20441;-72
2023/04/29 06:02:24;;;;;;;4.88;1.60;;;19.90;67.10;;;;;;6120975;29;20016;-72
2023/04/29 06:05:25;;;;;;;3.40;1.40;;;20.00;67.00;;;;;;6106277;29;20042;-72
2023/04/29 06:08:47;;;;;;;3.75;1.67;;;20.10;66.90;;;;;;6129968;29;20035;-72
2023/04/29 06:11:51;;;;;;;4.03;1.60;;;20.10;66.60;;;;;;6143815;28;20023;-73
2023/04/29 06:14:55;;;;;;;5.00;2.03;;;20.20;66.60;;;;;;6128170;29;20114;-72
2023/04/29 06:17:56;;;;;;;3.08;1.60;;;20.30;66.50;;;;;;6143814;28;20035;-71
2023/04/29 06:20:57;;;;;;;5.65;2.28;;;20.30;66.30;;;;;;6127596;29;20031;-72
2023/04/29 06:23:58;;;;;;;5.78;2.08;;;20.40;66.10;;;;;;6143347;28;20027;-73
2023/04/29 06:26:59;;;;;;;6.55;2.92;;;20.50;65.90;;;;;;6127109;29;20613;-72
2023/04/29 06:30:00;;;;;;;14.40;3.75;;;20.60;65.70;;;;;;6127116;29;20341;-72
2023/04/29 06:33:01;;;;;;;5.57;3.08;;;20.70;65.60;;;;;;6127262;29;20075;-74
2023/04/29 06:36:03;;;;;;;6.18;2.15;;;20.80;65.40;;;;;;6127091;28;20035;-71
2023/04/29 06:39:22;;;;;;;3.58;2.22;;;20.80;65.10;;;;;;6143618;29;20091;-72
2023/04/29 06:42:51;;;;;;;5.80;2.80;;;20.90;64.90;;;;;;6141539;28;20043;-72
2023/04/29 06:46:09;;;;;;;10.05;2.65;;;20.90;64.80;;;;;;6114641;29;20040;-72
2023/04/29 06:49:17;;;;;;;;;;;21.00;64.60;;;;;;6121621;29;20051;-72
2023/04/29 06:52:18;;;;;;;7.47;2.00;;;21.10;64.60;;;;;;6105258;29;20360;-73
2023/04/29 06:55:19;;;;;;;2.38;1.70;;;21.10;64.20;;;;;;6121479;29;20032;-73
2023/04/29 06:58:21;;;;;;;3.47;2.50;;;21.10;64.10;;;;;;6105213;29;20042;-72
2023/04/29 07:01:22;;;;;;;3.20;2.50;;;21.20;64.10;;;;;;6122983;29;20091;-73
2023/04/29 07:04:24;;;;;;;3.38;2.05;;;21.10;64.00;;;;;;6122728;29;20068;-72
2023/04/29 07:07:26;;;;;;;2.88;2.22;;;21.10;64.20;;;;;;6121063;29;20035;-72
2023/04/29 07:10:28;;;;;;;2.42;1.90;;;21.00;64.30;;;;;;6121123;29;20039;-73
2023/04/29 07:13:29;;;;;;;2.00;1.48;;;21.00;64.60;;;;;;6120951;29;20153;-72
2023/04/29 07:16:30;;;;;;;7.55;2.08;;;21.00;64.70;;;;;;6121455;29;20123;-73
2023/04/29 07:19:31;;;;;;;2.88;1.92;;;21.00;64.70;;;;;;6105343;29;20110;-71
2023/04/29 07:22:32;;;;;;;9.27;2.13;;;20.90;64.70;;;;;;6105351;29;20746;-73
2023/04/29 07:25:33;;;;;;;4.05;1.70;;;20.90;64.70;;;;;;6121411;29;20521;-73
2023/04/29 07:28:34;;;;;;;5.95;1.92;;;21.00;64.80;;;;;;6120328;29;20115;-73
2023/04/29 07:31:35;;;;;;;6.10;2.22;;;21.00;64.70;;;;;;6120723;29;20032;-73
2023/04/29 07:34:37;;;;;;;5.00;1.90;;;21.00;64.60;;;;;;6120112;29;20445;-72
2023/04/29 07:37:38;;;;;;;6.75;1.85;;;21.10;64.50;;;;;;6120201;29;20102;-72
2023/04/29 07:40:41;;;;;;;3.33;1.52;;;21.20;64.30;;;;;;6120474;29;20055;-72
2023/04/29 07:43:42;;;;;;;3.67;2.10;;;21.30;64.10;;;;;;6121248;29;20023;-71
2023/04/29 07:46:43;;;;;;;3.40;2.15;;;21.40;63.80;;;;;;6122162;29;20032;-73
2023/04/29 07:49:44;;;;;;;3.88;2.03;;;21.40;63.80;;;;;;6122352;29;20023;-72
2023/04/29 07:52:45;;;;;;;5.80;2.03;;;21.50;63.70;;;;;;6120966;29;20456;-72
2023/04/29 07:55:46;;;;;;;7.10;2.00;;;21.50;63.60;;;;;;6121557;29;20114;-72
2023/04/29 07:58:47;;;;;;;7.57;2.58;;;21.40;63.30;;;;;;6120011;29;20035;-72
2023/04/29 08:01:48;;;;;;;3.20;2.08;;;21.40;63.30;;;;;;6121333;29;20053;-72
2023/04/29 08:04:49;;;;;;;3.47;2.03;;;21.40;63.40;;;;;;6119546;29;20365;-73
2023/04/29 08:07:51;;;;;;;4.70;2.60;;;21.30;63.30;;;;;;6119062;29;20050;-73
2023/04/29 08:10:52;;;;;;;4.25;2.42;;;21.30;63.50;;;;;;6119190;29;20055;-74
2023/04/29 08:13:55;;;;;;;4.68;2.50;;;21.40;63.70;;;;;;6121043;29;20020;-73
2023/04/29 08:16:56;;;;;;;9.60;2.95;;;21.50;63.60;;;;;;6119357;29;20104;-72
2023/04/29 08:19:57;;;;;;;6.88;3.15;;;21.60;63.40;;;;;;6120522;29;20110;-72
2023/04/29 08:22:59;;;;;;;11.93;2.80;;;21.80;63.30;;;;;;6120479;29;20034;-73
2023/04/29 08:26:02;;;;;;;6.47;2.88;;;22.00;62.90;;;;;;6120285;29;20117;-73
2023/04/29 08:29:02;;;;;;;5.47;2.95;;;22.10;62.50;;;;;;6118996;29;20036;-72
2023/04/29 08:32:04;;;;;;;8.38;3.75;;;22.30;62.20;;;;;;6121013;29;20110;-73
2023/04/29 08:35:05;;;;;;;11.52;3.30;;;22.40;61.80;;;;;;6120779;29;20082;-73
2023/04/29 08:38:08;;;;;;;7.90;3.88;;;22.60;61.30;;;;;;6121233;29;20047;-74
2023/04/29 08:41:09;;;;;;;17.38;4.28;;;22.90;60.90;;;;;;6119246;29;20030;-75
2023/04/29 08:44:10;;;;;;;5.65;3.55;;;23.20;60.10;;;;;;6118468;29;20165;-72
2023/04/29 08:47:12;;;;;;;6.53;3.65;;;23.50;59.50;;;;;;6119918;29;20422;-72
2023/04/29 08:50:13;;;;;;;6.40;4.00;;;23.80;58.90;;;;;;6118303;29;20087;-73
2023/04/29 08:53:15;;;;;;;12.27;4.60;;;23.90;58.20;;;;;;6118774;29;20581;-72
2023/04/29 08:56:20;;;;;;;4.80;3.40;;;24.00;57.90;;;;;;6119089;29;20127;-72
2023/04/29 08:59:22;;;;;;;7.53;3.92;;;24.10;57.80;;;;;;6119783;29;20174;-73
2023/04/29 09:02:24;;;;;;;6.40;3.70;;;24.10;57.90;;;;;;6120243;29;20032;-72
2023/04/29 09:05:26;;;;;;;6.72;4.25;;;24.20;57.70;;;;;;6119154;29;20036;-72
2023/04/29 09:08:27;;;;;;;6.97;3.45;;;24.30;57.50;;;;;;6118753;29;20027;-72
2023/04/29 09:11:29;;;;;;;5.25;2.78;;;24.40;57.30;;;;;;6120069;29;20344;-72
2023/04/29 09:14:33;;;;;;;4.90;2.67;;;24.60;57.00;;;;;;6120273;29;20024;-72
2023/04/29 09:17:42;;;;;;;4.00;1.83;;;24.90;56.40;;;;;;6118427;29;20496;-72
2023/04/29 09:20:43;;;;;;;6.13;2.13;;;25.10;55.40;;;;;;6118653;29;20028;-72
2023/04/29 09:23:45;;;;;;;2.80;1.67;;;25.20;54.80;;;;;;6120283;29;20381;-73
2023/04/29 09:26:46;;;;;;;2.50;1.67;;;25.30;54.20;;;;;;6119935;29;20067;-73
2023/04/29 09:30:00;;;;;;;6.13;2.72;;;25.30;54.00;;;;;;6118255;29;20042;-73
2023/04/29 09:33:07;;;;;;;3.10;2.50;;;25.30;54.10;;;;;;6110480;29;20039;-73
2023/04/29 09:36:08;;;;;;;5.15;3.13;;;25.20;54.30;;;;;;6097866;29;20080;-72
2023/04/29 09:39:11;;;;;;;7.68;3.00;;;25.10;54.50;;;;;;6101004;29;20030;-73
2023/04/29 09:42:13;;;;;;;8.23;3.10;;;25.10;54.60;;;;;;6101320;29;20035;-72
2023/04/29 09:45:35;;;;;;;4.90;2.50;;;25.00;54.60;;;;;;6113367;29;20378;-72
2023/04/29 09:48:37;;;;;;;5.03;2.67;;;25.00;54.80;;;;;;6124428;29;20114;-73
2023/04/29 09:51:58;;;;;;;4.05;3.00;;;25.00;54.70;;;;;;6124292;29;20051;-74
2023/04/29 09:55:05;;;;;;;3.67;2.78;;;25.00;54.70;;;;;;6108058;29;20071;-74
2023/04/29 09:58:06;;;;;;;2.50;2.20;;;24.90;54.80;;;;;;6123760;29;20032;-74
2023/04/29 10:01:08;;;;;;;2.60;1.98;;;24.80;54.80;;;;;;6124153;29;20067;-74
2023/04/29 10:04:11;;;;;;;3.80;2.08;;;24.60;54.90;;;;;;6123387;29;20048;-73
2023/04/29 10:07:16;;;;;;;4.32;2.72;;;24.50;55.10;;;;;;6123617;29;20547;-72
2023/04/29 10:10:18;;;;;;;6.53;2.30;;;24.50;55.30;;;;;;6124711;29;20401;-73
2023/04/29 10:13:20;;;;;;;3.72;2.30;;;24.30;55.50;;;;;;6125310;29;20023;-72
2023/04/29 10:16:24;;;;;;;4.28;2.30;;;24.30;55.60;;;;;;6125358;29;20059;-74
2023/04/29 10:19:42;;;;;;;4.78;2.58;;;24.30;55.70;;;;;;6122864;29;20174;-72
2023/04/29 10:22:49;;;;;;;7.27;2.40;;;24.10;55.80;;;;;;6124150;29;20156;-73
2023/04/29 10:25:52;;;;;;;5.88;1.85;;;24.10;55.90;;;;;;6122824;29;20065;-73
2023/04/29 10:28:55;;;;;;;3.75;1.95;;;24.10;56.00;;;;;;6124041;29;20027;-73
2023/04/29 10:31:57;;;;;;;2.20;1.75;;;24.00;56.00;;;;;;6107359;29;20177;-72
2023/04/29 10:34:59;;;;;;;4.88;2.25;;;24.00;56.20;;;;;;6122600;29;20028;-73
2023/04/29 10:38:04;;;;;;;4.90;2.28;;;23.90;56.40;;;;;;6122046;29;20186;-73
2023/04/29 10:41:15;;;;;;;1.90;1.70;;;23.90;56.40;;;;;;6124229;29;20051;-72
2023/04/29 10:44:16;;;;;;;1.92;1.70;;;23.90;56.40;;;;;;6123898;29;20039;-74
2023/04/29 10:47:19;;;;;;;6.57;2.70;;;23.90;56.40;;;;;;6122945;29;20040;-73
2023/04/29 10:50:20;;;;;;;4.43;2.53;;;23.90;57.00;;;;;;6106567;29;20061;-73
2023/04/29 10:53:21;;;;;;;4.30;2.00;;;24.00;56.50;;;;;;6122467;29;20090;-76
2023/04/29 10:56:35;;;;;;;3.38;1.98;;;24.20;56.20;;;;;;6122527;29;20046;-74
2023/04/29 10:59:36;;;;;;;3.88;1.60;;;24.30;56.00;;;;;;6123363;29;20047;-72
2023/04/29 11:02:37;;;;;;;2.33;1.23;;;24.30;55.80;;;;;;6122034;29;20458;-72
2023/04/29 11:05:38;;;;;;;2.05;1.27;;;24.50;55.70;;;;;;6121620;29;20120;-73
2023/04/29 11:08:39;;;;;;;3.20;1.35;;;24.40;55.40;;;;;;6120612;29;20043;-74
2023/04/29 11:12:04;;;;;;;3.40;1.30;;;24.40;54.90;;;;;;6120654;29;20457;-74
2023/04/29 11:15:09;;;;;;;2.78;1.85;;;24.50;54.50;;;;;;6122140;29;20020;-74
2023/04/29 11:18:10;;;;;;;1.95;1.05;;;24.60;54.20;;;;;;6120623;29;20555;-72
2023/04/29 11:21:12;;;;;;;3.38;1.55;;;24.80;54.00;;;;;;6121731;29;20175;-75
2023/04/29 11:24:16;;;;;;;8.95;2.80;;;25.00;53.80;;;;;;6121521;29;20036;-74
2023/04/29 11:27:19;;;;;;;5.75;2.50;;;25.30;53.60;;;;;;6120360;29;20107;-73
2023/04/29 11:30:20;;;;;;;7.57;3.05;;;25.70;53.20;;;;;;6121623;29;20031;-73
2023/04/29 11:33:22;;;;;;;5.70;2.28;;;26.00;52.60;;;;;;6109871;29;20040;-73
2023/04/29 11:36:24;;;;;;;3.60;1.80;;;26.30;52.00;;;;;;6098708;29;20024;-72
2023/04/29 11:39:26;;;;;;;3.33;2.00;;;26.60;51.40;;;;;;6098046;29;20032;-74
2023/04/29 11:42:27;;;;;;;4.93;2.40;;;26.80;51.00;;;;;;6104248;29;20193;-74
2023/04/29 11:45:28;;;;;;;4.25;2.17;;;26.90;50.80;;;;;;6121308;29;20032;-73
2023/04/29 11:48:29;;;;;;;6.07;1.90;;;27.00;50.60;;;;;;6119905;29;20188;-72
2023/04/29 11:51:31;;;;;;;9.30;3.28;;;27.10;50.30;;;;;;6120188;29;20022;-73
2023/04/29 11:54:32;;;;;;;3.53;2.10;;;27.10;50.10;;;;;;6120146;29;20028;-72
2023/04/29 11:57:33;;;;;;;3.25;1.80;;;27.10;50.00;;;;;;6121165;29;20094;-73
2023/04/29 12:00:34;;;;;;;2.15;1.65;;;27.10;49.70;;;;;;6120632;29;20034;-75
2023/04/29 12:03:35;;;;;;;1.58;1.23;;;27.10;49.40;;;;;;6120017;29;20162;-73
2023/04/29 12:06:36;;;;;;;2.47;1.63;;;26.90;48.90;;;;;;6119594;29;20083;-72
2023/04/29 12:09:44;;;;;;;2.25;1.40;;;27.10;48.80;;;;;;6120228;29;20036;-74
2023/04/29 12:12:46;;;;;;;4.82;1.27;;;27.10;48.60;;;;;;6120434;29;20068;-74
2023/04/29 12:15:48;;;;;;;1.42;1.20;;;27.10;48.50;;;;;;6138979;28;20499;-74
2023/04/29 12:18:52;;;;;;;2.95;1.30;;;27.10;48.60;;;;;;6143355;29;20039;-73
2023/04/29 12:21:52;;;;;;;2.03;1.30;;;27.20;48.50;;;;;;6144434;28;20027;-73
2023/04/29 12:24:55;;;;;;;1.80;1.40;;;27.20;48.30;;;;;;6144723;29;20043;-73
2023/04/29 12:28:00;;;;;;;2.63;1.35;;;27.30;48.00;;;;;;6143045;28;20031;-73
2023/04/29 12:31:02;;;;;;;1.17;1.05;;;27.20;47.70;;;;;;6144423;28;20039;-73
2023/04/29 12:34:06;;;;;;;4.80;1.00;;;27.20;47.60;;;;;;6117131;28;20032;-75
2023/04/29 12:37:09;;;;;;;1.73;0.93;;;27.10;47.40;;;;;;6107747;29;20102;-73
2023/04/29 12:40:15;;;;;;;1.60;1.05;;;27.30;47.30;;;;;;6118820;29;20090;-73
2023/04/29 12:43:17;;;;;;;2.28;1.30;;;27.70;46.60;;;;;;6118561;29;20058;-74
2023/04/29 12:46:20;;;;;;;1.98;1.13;;;28.50;45.50;;;;;;6118388;29;20367;-73
2023/04/29 12:49:23;;;;;;;1.73;1.15;;;29.00;44.60;;;;;;6120004;29;20032;-74
2023/04/29 12:52:24;;;;;;;2.53;1.23;;;29.10;44.00;;;;;;6118532;29;20094;-73
2023/04/29 12:55:25;;;;;;;4.05;1.10;;;28.90;44.20;;;;;;6118920;29;20028;-73
2023/04/29 12:58:30;;;;;;;3.55;1.40;;;28.70;44.30;;;;;;6118531;29;20035;-73
2023/04/29 13:01:31;;;;;;;1.10;1.00;;;28.70;44.70;;;;;;6119728;29;20059;-73
2023/04/29 13:04:32;;;;;;;1.48;1.23;;;28.60;44.90;;;;;;6119640;29;20036;-73
2023/04/29 13:07:33;;;;;;;1.25;1.15;;;28.60;44.80;;;;;;6119269;29;20181;-74
2023/04/29 13:10:34;;;;;;;1.52;0.95;;;28.70;44.80;;;;;;6125508;29;20098;-73
2023/04/29 13:13:35;;;;;;;4.00;1.20;;;28.80;44.70;;;;;;6141602;28;20016;-73
2023/04/29 13:16:36;;;;;;;1.98;1.00;;;28.90;44.50;;;;;;6142919;28;20760;-73
2023/04/29 13:19:37;;;;;;;3.42;1.10;;;29.00;44.20;;;;;;6143173;28;20057;-74
2023/04/29 13:22:38;;;;;;;2.33;1.17;;;29.00;44.20;;;;;;6143709;29;20035;-75
2023/04/29 13:25:39;;;;;;;8.68;1.00;;;29.00;44.20;;;;;;6142456;28;20035;-73
2023/04/29 13:28:40;;;;;;;2.00;0.75;;;28.90;44.80;;;;;;6141884;28;20031;-74
2023/04/29 13:31:42;;;;;;;1.08;0.57;;;29.10;44.00;;;;;;6141700;28;20488;-73
2023/04/29 13:34:44;;;;;;;0.82;0.65;;;29.40;42.90;;;;;;6119975;29;20024;-74
2023/04/29 13:37:45;;;;;;;0.88;0.70;;;29.60;42.10;;;;;;6120399;29;20102;-76
2023/04/29 13:40:46;;;;;;;0.73;0.70;;;29.80;41.70;;;;;;6102506;29;20032;-74
2023/04/29 13:43:47;;;;;;;1.10;0.80;;;30.20;40.80;;;;;;6119692;29;20035;-74
2023/04/29 13:46:50;;;;;;;0.43;0.43;;;30.20;40.30;;;;;;6119705;29;20046;-74
2023/04/29 13:49:51;;;;;;;0.70;0.50;;;30.00;40.30;;;;;;6119810;29;20123;-73
2023/04/29 13:52:52;;;;;;;1.92;0.93;;;29.70;40.60;;;;;;6118221;29;20030;-73
2023/04/29 13:55:53;;;;;;;0.82;0.50;;;29.60;40.60;;;;;;6118185;29;20505;-74
2023/04/29 13:58:54;;;;;;;0.47;0.47;;;29.50;40.50;;;;;;6102478;29;20031;-74
2023/04/29 14:01:56;;;;;;;0.45;0.40;;;29.30;40.50;;;;;;6118428;29;20693;-74
2023/04/29 14:04:57;;;;;;;1.83;1.20;;;29.10;40.90;;;;;;6117791;29;20397;-75
2023/04/29 14:07:58;;;;;;;0.82;0.63;;;28.70;41.20;;;;;;6119251;29;20042;-74
2023/04/29 14:10:59;;;;;;;1.63;0.82;;;28.40;41.80;;;;;;6101783;29;20031;-72
2023/04/29 14:14:00;;;;;;;7.57;1.10;;;28.20;42.40;;;;;;6117890;29;20016;-74
2023/04/29 14:17:02;;;;;;;1.40;0.70;;;28.00;42.80;;;;;;6102028;29;20618;-74
2023/04/29 14:20:04;;;;;;;1.60;1.02;;;27.90;43.10;;;;;;6119690;29;20036;-74
2023/04/29 14:23:05;;;;;;;1.90;1.00;;;27.80;42.90;;;;;;6122216;29;20028;-74
2023/04/29 14:26:06;;;;;;;1.52;0.90;;;27.60;43.20;;;;;;6123324;29;20196;-75
2023/04/29 14:29:07;;;;;;;0.57;0.50;;;27.60;43.40;;;;;;6123700;29;20028;-73
2023/04/29 14:32:08;;;;;;;3.58;0.70;;;27.50;43.50;;;;;;6124340;29;20381;-75
2023/04/29 14:35:10;;;;;;;1.15;0.85;;;27.50;43.70;;;;;;6123886;29;20098;-74
2023/04/29 14:38:11;;;;;;;1.10;0.70;;;27.40;43.80;;;;;;6123320;29;20326;-73
2023/04/29 14:41:12;;;;;;;1.15;0.60;;;27.30;44.00;;;;;;6106658;29;20043;-72
2023/04/29 14:44:13;;;;;;;0.57;0.57;;;27.20;44.20;;;;;;6124629;29;20354;-73
2023/04/29 14:47:14;;;;;;;4.70;0.75;;;27.10;44.90;;;;;;6123860;29;20059;-72
2023/04/29 14:50:15;;;;;;;2.28;0.60;;;27.20;44.20;;;;;;6122002;29;20030;-72
2023/04/29 14:53:16;;;;;;;0.70;0.70;;;27.30;44.10;;;;;;6123440;29;20096;-74
2023/04/29 14:56:17;;;;;;;1.40;0.68;;;27.50;44.30;;;;;;6122814;29;20385;-74
2023/04/29 14:59:18;;;;;;;2.60;0.77;;;27.60;43.40;;;;;;6122504;29;20059;-73
2023/04/29 15:02:19;;;;;;;2.10;0.68;;;27.60;43.10;;;;;;6123733;29;20107;-74
2023/04/29 15:05:20;;;;;;;0.50;0.50;;;27.60;43.10;;;;;;6123832;29;20028;-74
2023/04/29 15:08:21;;;;;;;1.23;0.82;;;27.60;43.10;;;;;;6122139;29;20042;-73
2023/04/29 15:11:23;;;;;;;1.75;1.35;;;27.50;43.20;;;;;;6123513;29;20068;-74
2023/04/29 15:14:23;;;;;;;0.90;0.75;;;27.30;43.40;;;;;;6121955;29;20473;-76
2023/04/29 15:17:25;;;;;;;1.15;0.70;;;27.20;43.60;;;;;;6123064;29;20102;-74
2023/04/29 15:20:29;;;;;;;1.17;0.70;;;27.00;43.90;;;;;;6106867;29;20023;-73
2023/04/29 15:23:30;;;;;;;1.40;0.70;;;26.90;44.40;;;;;;6123591;29;20028;-75
2023/04/29 15:26:32;;;;;;;0.70;0.57;;;26.80;44.70;;;;;;6123347;29;20028;-73
2023/04/29 15:29:36;;;;;;;1.05;0.90;;;26.80;45.00;;;;;;6122670;29;20054;-73
2023/04/29 15:32:37;;;;;;;3.03;2.03;;;26.80;45.20;;;;;;6115189;29;20100;-73
2023/04/29 15:35:38;;;;;;;1.90;0.90;;;26.80;45.30;;;;;;6099488;29;20028;-74
2023/04/29 15:38:40;;;;;;;1.00;0.90;;;26.70;45.50;;;;;;6099999;29;20130;-71
2023/04/29 15:41:41;;;;;;;0.75;0.75;;;26.70;45.60;;;;;;6081880;29;20059;-73
2023/04/29 15:44:42;;;;;;;1.35;0.82;;;26.70;45.70;;;;;;6099532;29;20349;-73
2023/04/29 15:47:43;;;;;;;1.55;0.80;;;26.60;45.80;;;;;;6099254;29;20485;-74
2023/04/29 15:50:44;;;;;;;1.95;0.70;;;26.70;45.90;;;;;;6097960;29;20029;-73
2023/04/29 15:53:46;;;;;;;1.77;0.70;;;26.50;45.80;;;;;;6098378;29;20060;-73
2023/04/29 15:56:48;;;;;;;3.00;1.30;;;26.40;46.00;;;;;;6083205;29;20054;-75